Time;durP1;ratioP1;P1;durP2;ratioP2;P2;SDS_P1;SDS_P2;PMS_P1;PMS_P2;Temp;Humidity;BMP_temperature;BMP_pressure;BME280_temperature;BME280_humidity;BME280_pressure;Samples;Min_cycle;Max_cycle;Signal;HPM_P1;HPM_P2
2023/09/16 00:00:33;;;;;;;;;;;22.10;93.20;;;;;;5072900;28;19915;-52
2023/09/16 00:02:59;;;;;;;;;;;22.10;93.20;;;;;;5074196;28;19943;-50
2023/09/16 00:05:24;;;;;;;;;;;22.20;93.20;;;;;;5074026;28;19996;-51
2023/09/16 00:07:50;;;;;;;;;;;22.10;93.20;;;;;;5073644;28;19919;-51
2023/09/16 00:10:15;;;;;;;;;;;22.20;93.20;;;;;;5073848;28;19908;-51
2023/09/16 00:12:41;;;;;;;;;;;22.10;93.20;;;;;;5073838;28;20401;-51
2023/09/16 00:15:06;;;;;;;;;;;22.20;93.20;;;;;;5074041;28;19905;-52
2023/09/16 00:17:33;;;;;;;;;;;22.10;93.20;;;;;;5073686;28;19904;-49
2023/09/16 00:19:58;;;;;;;;;;;22.10;93.20;;;;;;5074062;28;19915;-48
2023/09/16 00:22:24;;;;;;;;;;;22.10;93.20;;;;;;5074347;28;19905;-48
2023/09/16 00:24:49;;;;;;;;;;;22.20;93.20;;;;;;5073707;28;19909;-49
2023/09/16 00:27:15;;;;;;;;;;;22.10;93.10;;;;;;5073935;28;19958;-51
2023/09/16 00:29:41;;;;;;;;;;;22.10;93.10;;;;;;5073973;28;19947;-49
2023/09/16 00:32:06;;;;;;;;;;;22.10;93.20;;;;;;5074166;28;19911;-53
2023/09/16 00:34:32;;;;;;;;;;;22.10;93.20;;;;;;5073413;28;19922;-50
2023/09/16 00:36:58;;;;;;;;;;;22.10;93.20;;;;;;5073883;28;19948;-49
2023/09/16 00:39:24;;;;;;;;;;;22.10;93.20;;;;;;5073626;28;20305;-54
2023/09/16 00:41:50;;;;;;;;;;;22.20;93.20;;;;;;5073797;28;20404;-51
2023/09/16 00:44:15;;;;;;;;;;;22.10;93.20;;;;;;5073718;28;19998;-49
2023/09/16 00:46:41;;;;;;;;;;;22.10;93.10;;;;;;5073491;28;20007;-50
2023/09/16 00:49:06;;;;;;;;;;;22.10;93.10;;;;;;5054238;28;20011;-50
2023/09/16 00:51:32;;;;;;;;;;;22.10;93.10;;;;;;5053788;28;19909;-51
2023/09/16 00:53:59;;;;;;;;;;;22.10;93.10;;;;;;5053600;28;19909;-51
2023/09/16 00:56:27;;;;;;;;;;;22.10;93.10;;;;;;5052321;28;19905;-51
2023/09/16 00:58:57;;;;;;;;;;;22.10;93.10;;;;;;5053294;28;19912;-52
2023/09/16 01:01:24;;;;;;;;;;;22.10;93.10;;;;;;5053585;28;19905;-51
2023/09/16 01:03:49;;;;;;;;;;;22.10;93.10;;;;;;5053544;28;20254;-50
2023/09/16 01:06:16;;;;;;;;;;;22.10;93.10;;;;;;5053282;28;20000;-50
2023/09/16 01:08:44;;;;;;;;;;;22.10;93.10;;;;;;5053547;28;20250;-50
2023/09/16 01:11:10;;;;;;;;;;;22.10;93.10;;;;;;5053517;28;19905;-50
2023/09/16 01:13:37;;;;;;;;;;;22.10;93.20;;;;;;5053354;28;19905;-53
2023/09/16 01:16:16;;;;;;;;;;;22.10;93.10;;;;;;5053071;28;19905;-49
2023/09/16 01:18:46;;;;;;;;;;;22.10;93.10;;;;;;5053337;28;19999;-51
2023/09/16 01:21:12;;;;;;;;;;;22.10;93.10;;;;;;5053347;28;20318;-53
2023/09/16 01:23:38;;;;;;;;;;;22.10;93.10;;;;;;5056377;28;20367;-52
2023/09/16 01:26:04;;;;;;;;;;;22.10;93.10;;;;;;5057147;28;19967;-52
2023/09/16 01:28:30;;;;;;;;;;;22.10;93.10;;;;;;5057057;28;19908;-49
2023/09/16 01:30:56;;;;;;;;;;;22.10;93.10;;;;;;5056824;28;20232;-49
2023/09/16 01:33:26;;;;;;;;;;;22.10;93.10;;;;;;5057044;28;19931;-51
2023/09/16 01:36:00;;;;;;;;;;;22.10;93.00;;;;;;5056997;28;19905;-50
2023/09/16 01:38:26;;;;;;;;;;;22.10;93.10;;;;;;5056894;28;19999;-53
2023/09/16 01:40:53;;;;;;;;;;;22.10;93.00;;;;;;5056899;28;19905;-52
2023/09/16 01:43:20;;;;;;;;;;;22.10;93.00;;;;;;5056819;28;19999;-52
2023/09/16 01:45:45;;;;;;;;;;;22.10;93.00;;;;;;5056428;28;19905;-51
2023/09/16 01:48:11;;;;;;;;;;;22.10;93.00;;;;;;5056343;28;19924;-52
2023/09/16 01:50:37;;;;;;;;;;;22.10;93.00;;;;;;5056699;28;19905;-49
2023/09/16 01:53:02;;;;;;;;;;;22.10;93.00;;;;;;5056927;28;20332;-54
2023/09/16 01:55:28;;;;;;;;;;;22.10;93.00;;;;;;5056883;28;19991;-52
2023/09/16 01:57:53;;;;;;;;;;;22.10;93.00;;;;;;5056398;28;19911;-49
2023/09/16 02:00:19;;;;;;;;;;;22.10;93.00;;;;;;5056812;28;19905;-49
2023/09/16 02:02:44;;;;;;;;;;;22.10;93.00;;;;;;5056558;28;19904;-54
2023/09/16 02:05:10;;;;;;;;;;;22.10;93.00;;;;;;5056530;28;19912;-53
2023/09/16 02:07:36;;;;;;;;;;;22.10;93.00;;;;;;5056467;28;19913;-49
2023/09/16 02:10:03;;;;;;;;;;;22.10;93.00;;;;;;5056873;28;20272;-50
2023/09/16 02:12:28;;;;;;;;;;;22.10;93.00;;;;;;5056333;28;19923;-51
2023/09/16 02:14:54;;;;;;;;;;;22.10;93.00;;;;;;5055939;28;19905;-52
2023/09/16 02:17:19;;;;;;;;;;;22.10;93.00;;;;;;5055906;28;19958;-51
2023/09/16 02:19:45;;;;;;;;;;;22.10;93.00;;;;;;5056203;28;19995;-53
2023/09/16 02:22:10;;;;;;;;;;;22.10;93.00;;;;;;5055806;28;19912;-52
2023/09/16 02:24:36;;;;;;;;;;;22.10;93.00;;;;;;5056127;28;19905;-51
2023/09/16 02:27:02;;;;;;;;;;;22.10;93.00;;;;;;5056087;28;20351;-54
2023/09/16 02:29:27;;;;;;;;;;;22.10;93.00;;;;;;5055921;28;19912;-51
2023/09/16 02:31:52;;;;;;;;;;;22.10;93.00;;;;;;5055749;28;19905;-50
2023/09/16 02:34:18;;;;;;;;;;;22.10;93.00;;;;;;5055860;28;19912;-53
2023/09/16 02:36:43;;;;;;;;;;;22.10;93.00;;;;;;5055942;28;19905;-52
2023/09/16 02:39:09;;;;;;;;;;;22.10;93.00;;;;;;5055873;28;19904;-52
2023/09/16 02:41:34;;;;;;;;;;;22.10;93.00;;;;;;5055636;28;20324;-51
2023/09/16 02:44:00;;;;;;;;;;;22.10;93.00;;;;;;5055827;28;19905;-50
2023/09/16 02:46:25;;;;;;;;;;;22.10;93.10;;;;;;5037785;28;19912;-48
2023/09/16 02:48:51;;;;;;;;;;;22.10;93.00;;;;;;5055986;28;19917;-52
2023/09/16 02:51:16;;;;;;;;;;;22.10;93.00;;;;;;5055438;28;19905;-50
2023/09/16 02:53:42;;;;;;;;;;;22.10;93.10;;;;;;5055680;28;20250;-53
2023/09/16 02:56:09;;;;;;;;;;;22.10;93.00;;;;;;5055215;28;19909;-55
2023/09/16 02:58:35;;;;;;;;;;;22.10;93.00;;;;;;5055477;28;19984;-53
2023/09/16 03:01:08;;;;;;;;;;;22.10;93.10;;;;;;5055460;28;19959;-51
2023/09/16 03:03:34;;;;;;;;;;;22.10;93.00;;;;;;5055565;28;19905;-52
2023/09/16 03:05:59;;;;;;;;;;;22.00;93.00;;;;;;5054994;28;19905;-52
2023/09/16 03:08:24;;;;;;;;;;;22.10;93.10;;;;;;5055006;28;20375;-51
2023/09/16 03:10:50;;;;;;;;;;;22.10;93.10;;;;;;5055173;28;19905;-50
2023/09/16 03:13:15;;;;;;;;;;;22.00;93.00;;;;;;5055087;28;19956;-53
2023/09/16 03:15:43;;;;;;;;;;;22.00;93.00;;;;;;5054822;28;19912;-50
2023/09/16 03:18:09;;;;;;;;;;;22.00;93.00;;;;;;5054771;28;20343;-51
2023/09/16 03:20:34;;;;;;;;;;;22.00;93.00;;;;;;5054755;28;19905;-54
2023/09/16 03:22:59;;;;;;;;;;;22.00;93.10;;;;;;5055006;28;19904;-53
2023/09/16 03:25:25;;;;;;;;;;;22.00;93.10;;;;;;5055017;28;19963;-51
2023/09/16 03:27:50;;;;;;;;;;;22.00;93.10;;;;;;5054847;28;19919;-52
2023/09/16 03:30:17;;;;;;;;;;;22.00;93.10;;;;;;5055088;28;20271;-50
2023/09/16 03:32:44;;;;;;;;;;;22.00;93.00;;;;;;5054557;28;19905;-51
2023/09/16 03:35:09;;;;;;;;;;;22.10;93.10;;;;;;5054589;28;20403;-49
2023/09/16 03:37:34;;;;;;;;;;;22.00;93.00;;;;;;5054535;28;19944;-52
2023/09/16 03:40:00;;;;;;;;;;;22.00;93.10;;;;;;5054640;28;20259;-51
2023/09/16 03:42:25;;;;;;;;;;;22.00;93.10;;;;;;5054667;28;19951;-51
2023/09/16 03:44:51;;;;;;;;;;;22.10;93.10;;;;;;5054094;28;19905;-51
2023/09/16 03:47:16;;;;;;;;;;;22.00;93.10;;;;;;5054301;28;19913;-51
2023/09/16 03:49:42;;;;;;;;;;;22.00;93.10;;;;;;5054602;28;20429;-53
2023/09/16 03:52:07;;;;;;;;;;;22.00;93.10;;;;;;5054118;28;19915;-53
2023/09/16 03:54:33;;;;;;;;;;;22.00;93.10;;;;;;5036454;28;19943;-52
2023/09/16 03:56:58;;;;;;;;;;;22.00;93.10;;;;;;5054378;28;20336;-53
2023/09/16 03:59:24;;;;;;;;;;;22.00;93.10;;;;;;5054070;28;19912;-51
2023/09/16 04:01:49;;;;;;;;;;;22.00;93.30;;;;;;5053890;28;19912;-52
2023/09/16 04:04:15;;;;;;;;;;;22.00;93.10;;;;;;5054235;28;19905;-53
2023/09/16 04:06:40;;;;;;;;;;;22.00;93.10;;;;;;5053897;28;19963;-49
2023/09/16 04:09:06;;;;;;;;;;;22.00;93.10;;;;;;5053926;28;20371;-49
2023/09/16 04:11:31;;;;;;;;;;;22.00;93.10;;;;;;5054246;28;19926;-52
2023/09/16 04:13:57;;;;;;;;;;;22.00;93.10;;;;;;5054015;28;19928;-53
2023/09/16 04:16:25;;;;;;;;;;;22.00;93.10;;;;;;5054060;28;19911;-53
2023/09/16 04:18:53;;;;;;;;;;;22.00;93.10;;;;;;5054047;28;19958;-49
2023/09/16 04:21:18;;;;;;;;;;;22.00;93.10;;;;;;5053963;28;19909;-53
2023/09/16 04:23:44;;;;;;;;;;;22.00;93.10;;;;;;5053946;28;19905;-51
2023/09/16 04:26:14;;;;;;;;;;;22.00;93.10;;;;;;5053453;28;19916;-51
2023/09/16 04:28:40;;;;;;;;;;;22.00;93.30;;;;;;5054287;28;19909;-52
2023/09/16 04:31:08;;;;;;;;;;;22.00;93.10;;;;;;5054358;28;19951;-49
2023/09/16 04:33:34;;;;;;;;;;;22.00;93.10;;;;;;5053650;28;19913;-51
2023/09/16 04:36:00;;;;;;;;;;;22.00;93.10;;;;;;5053829;28;19908;-51
2023/09/16 04:38:26;;;;;;;;;;;22.00;93.10;;;;;;5053631;28;19912;-51
2023/09/16 04:40:51;;;;;;;;;;;22.00;93.10;;;;;;5053858;28;20340;-49
2023/09/16 04:43:17;;;;;;;;;;;22.00;93.10;;;;;;5053484;28;20350;-54
2023/09/16 04:45:48;;;;;;;;;;;21.90;93.10;;;;;;5053753;28;19991;-53
2023/09/16 04:48:15;;;;;;;;;;;22.00;93.10;;;;;;5053771;28;20272;-55
2023/09/16 04:50:47;;;;;;;;;;;22.00;93.10;;;;;;5053815;28;20355;-52
2023/09/16 04:53:13;;;;;;;;;;;22.00;93.10;;;;;;5053277;28;20343;-50
2023/09/16 04:55:41;;;;;;;;;;;22.00;93.10;;;;;;5053667;28;19905;-53
2023/09/16 04:58:06;;;;;;;;;;;22.00;93.10;;;;;;5056016;28;19913;-55
2023/09/16 05:00:33;;;;;;;;;;;21.90;93.10;;;;;;5057400;28;20018;-54
2023/09/16 05:02:59;;;;;;;;;;;22.00;93.10;;;;;;5057270;28;20386;-51
2023/09/16 05:05:25;;;;;;;;;;;21.90;93.10;;;;;;5057715;28;19919;-47
2023/09/16 05:07:50;;;;;;;;;;;21.90;93.10;;;;;;5057556;28;19917;-49
2023/09/16 05:10:15;;;;;;;;;;;21.90;93.30;;;;;;5057912;28;20340;-51
2023/09/16 05:12:41;;;;;;;;;;;21.90;93.10;;;;;;5057858;28;19904;-52
2023/09/16 05:15:07;;;;;;;;;;;21.90;93.10;;;;;;5057318;28;19904;-49
2023/09/16 05:17:33;;;;;;;;;;;21.90;93.10;;;;;;5057422;28;20038;-50
2023/09/16 05:19:58;;;;;;;;;;;21.90;93.10;;;;;;5057297;28;19912;-50
2023/09/16 05:22:24;;;;;;;;;;;21.90;93.10;;;;;;5057181;28;19905;-53
2023/09/16 05:24:49;;;;;;;;;;;21.90;93.10;;;;;;5057249;28;19908;-53
2023/09/16 05:27:15;;;;;;;;;;;21.90;93.10;;;;;;5056791;28;20366;-51
2023/09/16 05:29:40;;;;;;;;;;;21.90;93.20;;;;;;5057107;28;19905;-52
2023/09/16 05:32:05;;;;;;;;;;;21.90;93.20;;;;;;5057342;28;19912;-49
2023/09/16 05:34:31;;;;;;;;;;;21.90;93.20;;;;;;5052539;28;20443;-52
2023/09/16 05:36:56;;;;;;;;;;;21.90;93.20;;;;;;5039075;28;19991;-52
2023/09/16 05:39:22;;;;;;;;;;;21.90;93.40;;;;;;5036828;28;19905;-53
2023/09/16 05:41:49;;;;;;;;;;;21.90;93.20;;;;;;5036852;28;19963;-50
2023/09/16 05:44:19;;;;;;;;;;;21.90;93.30;;;;;;5036590;28;19931;-49
2023/09/16 05:46:45;;;;;;;;;;;21.90;93.30;;;;;;5036986;28;20004;-50
2023/09/16 05:49:11;;;;;;;;;;;21.90;93.30;;;;;;5036344;28;19990;-52
2023/09/16 05:51:36;;;;;;;;;;;21.90;93.30;;;;;;5047743;28;20366;-51
2023/09/16 05:54:02;;;;;;;;;;;21.80;93.30;;;;;;5036480;28;20330;-53
2023/09/16 05:56:27;;;;;;;;;;;21.90;93.40;;;;;;5036301;28;19909;-54
2023/09/16 05:58:53;;;;;;;;;;;21.80;93.30;;;;;;5036541;28;20004;-50
2023/09/16 06:01:19;;;;;;;;;;;21.80;93.40;;;;;;5037490;28;19921;-53
2023/09/16 06:03:44;;;;;;;;;;;21.80;93.40;;;;;;5049365;28;19905;-53
2023/09/16 06:06:10;;;;;;;;;;;21.80;93.40;;;;;;5056015;28;19912;-53
2023/09/16 06:08:36;;;;;;;;;;;21.80;93.40;;;;;;5055437;28;20419;-51
2023/09/16 06:11:01;;;;;;;;;;;21.80;93.40;;;;;;5056253;28;19947;-52
2023/09/16 06:13:27;;;;;;;;;;;21.80;93.40;;;;;;5055849;28;19978;-52
2023/09/16 06:15:53;;;;;;;;;;;21.80;93.40;;;;;;5056228;28;19958;-50
2023/09/16 06:18:18;;;;;;;;;;;21.80;93.40;;;;;;5052871;28;20276;-52
2023/09/16 06:20:44;;;;;;;;;;;21.80;93.40;;;;;;5038756;28;20404;-54
2023/09/16 06:23:09;;;;;;;;;;;21.80;93.50;;;;;;5043189;28;19915;-53
2023/09/16 06:25:35;;;;;;;;;;;21.80;93.50;;;;;;5036386;28;19944;-49
2023/09/16 06:28:00;;;;;;;;;;;21.80;93.50;;;;;;5036072;28;19917;-50
2023/09/16 06:30:26;;;;;;;;;;;21.80;93.50;;;;;;5035829;28;19912;-53
2023/09/16 06:32:53;;;;;;;;;;;21.80;93.50;;;;;;5035866;28;20334;-49
2023/09/16 06:35:18;;;;;;;;;;;21.80;93.50;;;;;;5035681;28;20390;-52
2023/09/16 06:37:44;;;;;;;;;;;21.80;93.50;;;;;;5036371;28;19909;-53
2023/09/16 06:40:09;;;;;;;;;;;21.80;93.50;;;;;;5051653;28;19971;-52
2023/09/16 06:42:35;;;;;;;;;;;21.80;93.40;;;;;;5048260;28;19909;-49
2023/09/16 06:45:00;;;;;;;;;;;21.70;92.20;;;;;;5035646;28;19912;-50
2023/09/16 06:47:26;;;;;;;;;;;21.70;91.70;;;;;;5035319;28;20007;-49
2023/09/16 06:49:52;;;;;;;;;;;21.70;92.40;;;;;;5049053;28;19912;-52
2023/09/16 06:52:17;;;;;;;;;;;21.70;92.80;;;;;;5047971;28;19944;-52
2023/09/16 06:54:43;;;;;;;;;;;21.70;93.00;;;;;;5054777;28;19909;-53
2023/09/16 06:57:08;;;;;;;;;;;21.80;93.10;;;;;;5054805;28;20276;-53
2023/09/16 06:59:34;;;;;;;;;;;21.80;93.10;;;;;;5055193;28;20352;-52
2023/09/16 07:01:59;;;;;;;;;;;21.70;93.10;;;;;;5055372;28;19908;-52
2023/09/16 07:04:25;;;;;;;;;;;21.70;93.10;;;;;;5055020;28;19916;-50
2023/09/16 07:06:50;;;;;;;;;;;21.70;93.10;;;;;;5054916;28;19986;-53
2023/09/16 07:09:16;;;;;;;;;;;21.70;93.10;;;;;;5055329;28;20271;-51
2023/09/16 07:11:41;;;;;;;;;;;21.70;93.10;;;;;;5054820;28;19909;-52
2023/09/16 07:14:07;;;;;;;;;;;21.80;93.20;;;;;;5055468;28;20178;-54
2023/09/16 07:16:38;;;;;;;;;;;21.70;93.20;;;;;;5054748;28;20288;-53
2023/09/16 07:19:03;;;;;;;;;;;21.70;93.20;;;;;;5054133;28;19909;-52
2023/09/16 07:21:31;;;;;;;;;;;21.70;93.20;;;;;;5053989;28;19916;-52
2023/09/16 07:24:00;;;;;;;;;;;21.70;93.20;;;;;;5054894;28;19979;-49
2023/09/16 07:26:27;;;;;;;;;;;21.70;93.20;;;;;;5054914;28;20063;-49
2023/09/16 07:28:52;;;;;;;;;;;21.70;93.30;;;;;;5054533;28;20003;-50
2023/09/16 07:31:18;;;;;;;;;;;21.70;93.30;;;;;;5054748;28;19952;-51
2023/09/16 07:33:43;;;;;;;;;;;21.70;93.30;;;;;;5054708;28;20272;-51
2023/09/16 07:36:09;;;;;;;;;;;21.70;93.30;;;;;;5054605;28;19996;-53
2023/09/16 07:38:34;;;;;;;;;;;21.70;93.30;;;;;;5054401;28;19966;-52
2023/09/16 07:40:59;;;;;;;;;;;21.70;93.30;;;;;;5054507;28;19915;-50
2023/09/16 07:43:25;;;;;;;;;;;21.70;93.30;;;;;;5036324;28;20347;-54
2023/09/16 07:45:51;;;;;;;;;;;21.70;93.40;;;;;;5054172;28;19909;-52
2023/09/16 07:48:17;;;;;;;;;;;21.70;93.40;;;;;;5053995;28;19928;-50
2023/09/16 07:50:42;;;;;;;;;;;21.70;93.40;;;;;;5054374;28;19908;-53
2023/09/16 07:53:08;;;;;;;;;;;21.70;93.40;;;;;;5054503;28;19913;-54
2023/09/16 07:55:33;;;;;;;;;;;21.70;93.40;;;;;;5053859;28;19916;-49
2023/09/16 07:57:59;;;;;;;;;;;21.70;93.40;;;;;;5054266;28;19909;-51
2023/09/16 08:00:24;;;;;;;;;;;21.70;93.40;;;;;;5053879;28;19913;-53
2023/09/16 08:02:50;;;;;;;;;;;21.70;93.40;;;;;;5054056;28;19938;-51
2023/09/16 08:05:15;;;;;;;;;;;21.70;93.40;;;;;;5053889;28;19916;-53
2023/09/16 08:07:40;;;;;;;;;;;21.70;93.40;;;;;;5053971;28;19923;-51
2023/09/16 08:10:06;;;;;;;;;;;21.70;93.50;;;;;;5050738;28;19944;-51
2023/09/16 08:12:32;;;;;;;;;;;21.70;93.50;;;;;;5053806;28;19955;-52
2023/09/16 08:14:58;;;;;;;;;;;21.70;93.50;;;;;;5053638;28;19939;-51
2023/09/16 08:17:24;;;;;;;;;;;21.70;93.50;;;;;;5051685;28;19920;-51
2023/09/16 08:19:49;;;;;;;;;;;21.70;93.50;;;;;;5036738;28;19917;-51
2023/09/16 08:22:15;;;;;;;;;;;21.70;93.50;;;;;;5033738;28;19960;-51
2023/09/16 08:24:40;;;;;;;;;;;21.70;93.50;;;;;;5038081;28;20421;-52
2023/09/16 08:27:06;;;;;;;;;;;21.70;93.50;;;;;;5041556;28;20020;-53
2023/09/16 08:29:31;;;;;;;;;;;21.70;93.50;;;;;;5039234;28;19920;-49
2023/09/16 08:31:56;;;;;;;;;;;21.70;93.50;;;;;;5040646;28;19909;-51
2023/09/16 08:34:22;;;;;;;;;;;21.70;93.50;;;;;;5053097;28;19913;-53
2023/09/16 08:36:47;;;;;;;;;;;21.70;93.50;;;;;;5038918;28;19917;-53
2023/09/16 08:39:13;;;;;;;;;;;21.70;93.50;;;;;;5035736;28;19945;-52
2023/09/16 08:41:38;;;;;;;;;;;21.70;93.50;;;;;;5039659;28;19920;-51
2023/09/16 08:44:05;;;;;;;;;;;21.70;93.50;;;;;;5041930;28;19913;-51
2023/09/16 08:46:32;;;;;;;;;;;21.70;93.50;;;;;;5033580;28;20008;-51
2023/09/16 08:48:59;;;;;;;;;;;21.70;93.40;;;;;;5046794;28;20035;-51
2023/09/16 08:51:25;;;;;;;;;;;21.70;93.50;;;;;;5047066;28;19917;-52
2023/09/16 08:53:51;;;;;;;;;;;21.70;93.50;;;;;;5044678;28;19913;-52
2023/09/16 08:56:17;;;;;;;;;;;21.70;93.50;;;;;;5053367;28;19991;-51
2023/09/16 08:58:43;;;;;;;;;;;21.70;93.50;;;;;;5031058;28;20391;-54
2023/09/16 09:01:10;;;;;;;;;;;21.70;93.50;;;;;;5053366;28;20316;-51
2023/09/16 09:03:36;;;;;;;;;;;21.70;93.50;;;;;;5042406;28;19921;-52
2023/09/16 09:06:03;;;;;;;;;;;21.70;93.50;;;;;;5034814;28;20004;-52
2023/09/16 09:08:29;;;;;;;;;;;21.70;93.50;;;;;;5032328;28;20295;-47
2023/09/16 09:10:55;;;;;;;;;;;21.70;93.50;;;;;;5041524;28;19913;-49
2023/09/16 09:13:21;;;;;;;;;;;21.70;93.50;;;;;;5033742;28;19962;-54
2023/09/16 09:15:47;;;;;;;;;;;21.70;93.50;;;;;;5053678;28;19970;-51
2023/09/16 09:18:15;;;;;;;;;;;21.70;93.50;;;;;;5049945;28;19963;-54
2023/09/16 09:20:41;;;;;;;;;;;21.70;93.50;;;;;;5048093;28;20360;-52
2023/09/16 09:23:07;;;;;;;;;;;21.70;93.50;;;;;;5053033;28;19916;-51
2023/09/16 09:25:32;;;;;;;;;;;21.70;93.50;;;;;;5043986;28;19932;-51
2023/09/16 09:27:58;;;;;;;;;;;21.70;93.50;;;;;;5043512;28;20283;-51
2023/09/16 09:30:27;;;;;;;;;;;21.70;93.50;;;;;;5050148;28;19919;-53
2023/09/16 09:32:55;;;;;;;;;;;21.70;93.50;;;;;;5049412;28;19997;-51
2023/09/16 09:35:21;;;;;;;;;;;21.70;93.60;;;;;;5053070;28;19928;-50
2023/09/16 09:37:47;;;;;;;;;;;21.70;93.60;;;;;;5050527;28;19959;-54
2023/09/16 09:40:13;;;;;;;;;;;21.70;93.60;;;;;;5045460;28;19928;-53
2023/09/16 09:42:42;;;;;;;;;;;21.70;93.70;;;;;;5051342;28;19917;-52
2023/09/16 09:45:08;;;;;;;;;;;21.70;93.60;;;;;;5048238;28;19939;-49
2023/09/16 09:47:34;;;;;;;;;;;21.70;93.60;;;;;;5036375;28;20028;-50
2023/09/16 09:50:00;;;;;;;;;;;21.70;93.60;;;;;;5036808;28;20356;-53
2023/09/16 09:52:26;;;;;;;;;;;21.70;93.60;;;;;;5036562;28;19947;-53
2023/09/16 09:54:52;;;;;;;;;;;21.70;93.70;;;;;;5036657;28;19910;-54
2023/09/16 09:57:18;;;;;;;;;;;21.70;93.70;;;;;;5036634;28;20096;-52
2023/09/16 09:59:43;;;;;;;;;;;21.70;93.80;;;;;;5036293;28;19953;-52
2023/09/16 10:02:09;;;;;;;;;;;21.70;93.80;;;;;;5036826;28;19972;-54
2023/09/16 10:04:35;;;;;;;;;;;21.70;93.80;;;;;;5036627;28;19916;-51
2023/09/16 10:07:00;;;;;;;;;;;21.70;93.80;;;;;;5036038;28;20277;-50
2023/09/16 10:09:26;;;;;;;;;;;21.70;93.80;;;;;;5036339;28;19921;-53
2023/09/16 10:11:51;;;;;;;;;;;21.70;93.80;;;;;;5036317;28;19909;-55
2023/09/16 10:14:18;;;;;;;;;;;21.70;93.80;;;;;;5035929;28;19909;-54
2023/09/16 10:16:44;;;;;;;;;;;21.70;93.90;;;;;;5036313;28;19909;-51
2023/09/16 10:19:09;;;;;;;;;;;21.70;93.90;;;;;;5036125;28;20039;-53
2023/09/16 10:21:37;;;;;;;;;;;21.70;93.90;;;;;;5035865;28;19945;-53
2023/09/16 10:24:02;;;;;;;;;;;21.70;93.90;;;;;;5036460;28;19909;-53
2023/09/16 10:26:28;;;;;;;;;;;21.70;94.00;;;;;;5035742;28;19923;-53
2023/09/16 10:28:54;;;;;;;;;;;21.70;93.90;;;;;;5035850;28;19913;-54
2023/09/16 10:31:20;;;;;;;;;;;21.70;94.00;;;;;;5035756;28;19910;-53
2023/09/16 10:33:46;;;;;;;;;;;21.70;94.00;;;;;;5035578;28;19963;-51
2023/09/16 10:36:12;;;;;;;;;;;21.70;94.00;;;;;;5035690;28;20314;-54
2023/09/16 10:38:38;;;;;;;;;;;21.70;94.20;;;;;;5035842;28;19909;-52
2023/09/16 10:41:07;;;;;;;;;;;21.70;93.90;;;;;;5035781;28;20276;-53
2023/09/16 10:43:33;;;;;;;;;;;21.70;93.90;;;;;;5036059;28;19909;-52
2023/09/16 10:45:58;;;;;;;;;;;21.70;93.90;;;;;;5035617;28;19928;-53
2023/09/16 10:48:24;;;;;;;;;;;21.70;94.00;;;;;;5034792;28;20372;-50
2023/09/16 10:50:51;;;;;;;;;;;21.70;93.90;;;;;;5035079;28;19920;-50
2023/09/16 10:53:25;;;;;;;;;;;21.70;93.90;;;;;;5034882;28;19952;-52
2023/09/16 10:56:20;;;;;;;;;;;21.70;93.90;;;;;;5033792;28;19959;-53
2023/09/16 10:58:46;;;;;;;;;;;21.70;93.80;;;;;;5017057;28;20011;-51
2023/09/16 11:01:18;;;;;;;;;;;21.70;93.90;;;;;;5035032;28;20050;-54
2023/09/16 11:03:46;;;;;;;;;;;21.70;93.90;;;;;;5035418;28;20019;-52
2023/09/16 11:06:12;;;;;;;;;;;21.70;94.00;;;;;;5034707;28;19936;-50
2023/09/16 11:08:38;;;;;;;;;;;21.70;94.00;;;;;;5034436;28;20314;-52
2023/09/16 11:11:03;;;;;;;;;;;21.70;94.00;;;;;;5035063;28;20000;-54
2023/09/16 11:13:29;;;;;;;;;;;21.70;94.00;;;;;;5034916;28;19963;-54
2023/09/16 11:15:58;;;;;;;;;;;21.70;94.00;;;;;;5035182;28;20253;-53
2023/09/16 11:18:24;;;;;;;;;;;21.70;94.00;;;;;;5034856;28;19910;-50
2023/09/16 11:20:50;;;;;;;;;;;21.70;94.00;;;;;;5035122;28;19919;-52
2023/09/16 11:23:16;;;;;;;;;;;21.70;94.00;;;;;;5024695;28;19914;-53
2023/09/16 11:25:42;;;;;;;;;;;21.70;94.00;;;;;;5034236;28;19919;-50
2023/09/16 11:28:08;;;;;;;;;;;21.70;94.00;;;;;;5052124;28;19928;-54
2023/09/16 11:30:35;;;;;;;;;;;21.70;94.00;;;;;;5047401;28;19913;-52
2023/09/16 11:33:00;;;;;;;;;;;21.70;94.00;;;;;;5050307;28;19916;-52
2023/09/16 11:35:29;;;;;;;;;;;21.70;93.90;;;;;;5031465;28;19913;-53
2023/09/16 11:37:55;;;;;;;;;;;21.70;94.00;;;;;;5041465;28;20250;-50
2023/09/16 11:40:32;;;;;;;;;;;21.70;93.90;;;;;;5037449;28;19909;-51
2023/09/16 11:42:58;;;;;;;;;;;21.70;93.90;;;;;;5053776;28;19909;-51
2023/09/16 11:45:24;;;;;;;;;;;21.70;93.90;;;;;;5035088;28;19932;-50
2023/09/16 11:47:49;;;;;;;;;;;21.70;94.00;;;;;;5034268;28;19925;-49
2023/09/16 11:50:22;;;;;;;;;;;21.70;93.90;;;;;;5023545;28;19920;-48
2023/09/16 11:52:47;;;;;;;;;;;21.70;94.00;;;;;;5054293;28;19952;-54
2023/09/16 11:55:14;;;;;;;;;;;21.70;94.00;;;;;;5043717;28;19944;-51
2023/09/16 11:57:39;;;;;;;;;;;21.70;93.90;;;;;;5033901;28;19992;-53
2023/09/16 12:00:06;;;;;;;;;;;21.70;93.90;;;;;;5034967;28;19960;-51
2023/09/16 12:02:32;;;;;;;;;;;21.70;93.80;;;;;;5034608;28;19916;-52
2023/09/16 12:04:58;;;;;;;;;;;21.70;93.80;;;;;;5034133;28;19913;-50
2023/09/16 12:07:24;;;;;;;;;;;21.70;93.80;;;;;;5043890;28;19967;-50
2023/09/16 12:09:50;;;;;;;;;;;21.70;93.90;;;;;;5053928;28;19917;-54
2023/09/16 12:12:16;;;;;;;;;;;21.70;93.90;;;;;;5041483;28;20338;-51
2023/09/16 12:14:42;;;;;;;;;;;21.70;93.90;;;;;;5049181;28;19977;-48
2023/09/16 12:17:09;;;;;;;;;;;21.70;93.90;;;;;;5044432;28;19913;-51
2023/09/16 12:19:34;;;;;;;;;;;21.70;93.80;;;;;;5048375;28;19913;-49
2023/09/16 12:22:00;;;;;;;;;;;21.70;93.90;;;;;;5051454;28;19920;-52
2023/09/16 12:24:25;;;;;;;;;;;21.70;93.90;;;;;;5037177;28;20276;-51
2023/09/16 12:26:51;;;;;;;;;;;21.70;93.90;;;;;;5033525;28;19913;-53
2023/09/16 12:29:17;;;;;;;;;;;21.70;93.90;;;;;;5033669;28;19913;-50
2023/09/16 12:31:42;;;;;;;;;;;21.70;93.90;;;;;;5033924;28;19909;-50
2023/09/16 12:34:13;;;;;;;;;;;21.70;93.80;;;;;;5033643;28;19920;-49
2023/09/16 12:36:39;;;;;;;;;;;21.70;93.90;;;;;;5033915;28;20288;-52
2023/09/16 12:39:04;;;;;;;;;;;21.70;93.80;;;;;;5034017;28;19919;-52
2023/09/16 12:41:30;;;;;;;;;;;21.70;93.90;;;;;;5033888;28;19909;-52
2023/09/16 12:43:57;;;;;;;;;;;21.70;93.90;;;;;;5033579;28;20276;-49
2023/09/16 12:46:23;;;;;;;;;;;21.70;93.90;;;;;;5033831;28;20325;-52
2023/09/16 12:48:49;;;;;;;;;;;21.70;93.90;;;;;;5033471;28;19952;-52
2023/09/16 12:51:19;;;;;;;;;;;21.70;93.90;;;;;;5033681;28;19948;-54
2023/09/16 12:53:45;;;;;;;;;;;21.70;93.80;;;;;;5034175;28;19913;-53
2023/09/16 12:56:15;;;;;;;;;;;21.70;93.80;;;;;;5033203;28;19937;-49
2023/09/16 12:58:41;;;;;;;;;;;21.70;93.80;;;;;;5033593;28;19909;-52
2023/09/16 13:01:07;;;;;;;;;;;21.70;93.90;;;;;;5033540;28;19931;-52
2023/09/16 13:03:40;;;;;;;;;;;21.70;93.80;;;;;;5049084;28;19909;-51
2023/09/16 13:06:06;;;;;;;;;;;21.70;93.80;;;;;;5033425;28;19909;-50
2023/09/16 13:08:32;;;;;;;;;;;21.70;93.80;;;;;;5033065;28;19909;-55
2023/09/16 13:10:58;;;;;;;;;;;21.70;93.80;;;;;;5033513;28;19956;-52
2023/09/16 13:13:23;;;;;;;;;;;21.70;93.80;;;;;;5033332;28;19959;-50
2023/09/16 13:15:50;;;;;;;;;;;21.70;93.80;;;;;;5033437;28;19914;-53
2023/09/16 13:18:16;;;;;;;;;;;21.70;94.00;;;;;;5034623;28;19909;-54
2023/09/16 13:20:42;;;;;;;;;;;21.70;93.80;;;;;;5037363;28;19916;-50
2023/09/16 13:23:20;;;;;;;;;;;21.70;93.80;;;;;;5037394;28;19920;-53
2023/09/16 13:25:46;;;;;;;;;;;21.70;93.80;;;;;;5037404;28;19909;-52
2023/09/16 13:28:16;;;;;;;;;;;21.70;93.80;;;;;;5036718;28;20417;-51
2023/09/16 13:30:53;;;;;;;;;;;21.70;93.80;;;;;;5037040;28;19932;-52
2023/09/16 13:33:19;;;;;;;;;;;21.70;93.80;;;;;;5037066;28;20356;-52
2023/09/16 13:35:45;;;;;;;;;;;21.70;93.80;;;;;;5035937;28;20242;-55
2023/09/16 13:38:12;;;;;;;;;;;21.70;93.80;;;;;;5036073;28;19920;-53
2023/09/16 13:40:37;;;;;;;;;;;21.70;93.80;;;;;;5049962;28;19919;-49
2023/09/16 13:43:04;;;;;;;;;;;21.70;93.80;;;;;;5054938;28;19908;-51
2023/09/16 13:45:29;;;;;;;;;;;21.70;93.80;;;;;;5051221;28;19913;-54
2023/09/16 13:48:07;;;;;;;;;;;21.70;93.80;;;;;;5056468;28;19928;-49
2023/09/16 13:50:33;;;;;;;;;;;21.70;93.80;;;;;;5056365;28;19944;-53
2023/09/16 13:52:58;;;;;;;;;;;21.70;93.80;;;;;;5056698;28;20302;-52
2023/09/16 13:55:25;;;;;;;;;;;21.70;93.70;;;;;;5052356;28;20004;-52
2023/09/16 13:57:50;;;;;;;;;;;21.70;93.70;;;;;;5055160;28;19909;-52
2023/09/16 14:00:16;;;;;;;;;;;21.70;93.70;;;;;;5056329;28;19916;-53
2023/09/16 14:02:42;;;;;;;;;;;21.70;93.70;;;;;;5045109;28;19913;-50
2023/09/16 14:05:07;;;;;;;;;;;21.70;93.70;;;;;;5046162;28;19916;-54
2023/09/16 14:07:33;;;;;;;;;;;21.70;93.70;;;;;;5036294;28;19913;-52
2023/09/16 14:09:58;;;;;;;;;;;21.70;93.70;;;;;;5036041;28;19917;-50